Terminal Aerodrome Forecast
Issued by NWS

Home | Current Version | Previous Version | Text Only | Print | Product List | Glossary On
Versions: 1 2 3 4 5 6 7 8 9 10 11 12 13 14 15 16 17 18 19 20 21 22 23 24 25 26 27 28 29 30 31 32 33 34 35 36 37 38 39 40 41 42
000
FTUS41 KBOX 221120
TAFBED
TAF
KBED 221120Z 2212/2312 26007KT P6SM SKC
     FM221400 27011G19KT P6SM SCT250
     FM221800 28014G22KT P6SM SCT040
     FM222300 29010KT P6SM FEW050
     FM230900 00000KT P6SM SKC=

USA.gov is the U.S. government's official web portal to all federal, state and local government web resources and services.